Aérodrome :
LOGIN :

S'inscrire | Disclaimer

   EN    FR    IT 

 










Légende :    VFR   VFR Marginal   IFR   IFR Intensif   IFR Très Intensif
Visi : 
Plafond : 
>= 8 km
>= 3000ft
5 à 8 km
1000 à 3000 ft
1500m à 5 km
500 à 1000 ft
800 à 1500m
200 à 500 ft
< 800m
< 200 ft
Symboles :   Orages  Brouillard  Fortes neiges  Fortes précipitations  Vent > 20 kt
SIGMETs :   Divers  Orages  Givrage  Turbulence  Onde Orograph.  Cendres Volcan.







- Altitude de l'aérodrome : 1260 ft
- Code IATA : LDE
- Voir les cartes d'approche


LFBT - Tarbes / Ossun

DERNIER METAR :
  • 222130Z AUTO 18005KT 9999 FEW030 BKN046 14/13 Q1018 NOSIG

METARs EXPIRÉS :
  • 222100Z AUTO 16003KT 120V200 9999 FEW044/// SCT240/// ///TCU 15/13 Q1017 TEMPO 4000 SHRA BECMG FEW040
  • 222030Z AUTO 18005KT 9999 BKN044/// BKN070/// ///CB 15/13 Q1017 TEMPO 4000 SHRA BECMG FEW040
  • 222000Z AUTO 20005KT 9999 BKN046/// BKN054/// ///CB 16/14 Q1017 TEMPO 4000 SHRA
  • 221930Z AUTO VRB03KT 9999 SCT044/// BKN150/// ///CB 18/12 Q1016 TEMPO 4000 SHRA
  • 221900Z AUTO 34005KT 300V360 9999 VCTS SCT042/// BKN052/// BKN066/// ///CB 19/13 Q1016 TEMPO 4000 SHRA

TAF AMD TAF LFBT
Valide du 22 à 19h jusqu'au 23 à 18h UTC


221903Z 2219/2318 30006KT 9999 FEW040
TEMPO 2219/2222 4000 SHRA BKN030TCU
PROB40
TEMPO 2219/2220 -TSRA SCT040CB BKN060
BECMG 2222/2224 VRB03KT
PROB30
TEMPO 2303/2309 BKN005
Pas de NOTAMs connus pour ce terrain.



MET'MAP, la Météo Aéronautique d'un coup d'oeil ! - Copyright ORBIFLY Décembre 2007 - Disclaimer

ORBIFLY MET'MAP TEAM :

Programmation & Développement : Alexandra Zaïnal
Conception & Développement : Baudouin d'Aumeries
Co-Programmation & Développement : Marc-Olivier Méhu
Soutien technique & logistique : Manuel Goepfert

Contact : metmap@orbifly.com




SOURCES & CREDITS :

   NOAA